Immagine casuale
Testata Regione Lazio ARSIAL SIARL

Ultima Misura Rilevata

Temperatura, Umidità, Pioggia, Pressione Radiazione Solare, Venti, Evapotraspirazione, ecc.
Temperature diurne e notturne Direzione vento Legenda
Prov Stazione Data TMin TMed TMax UMed Pioggia PMed
FR ALATRI Basciano 23/01/2020 4,5 9,3 16,1 68 0 1.022
FR ALVITO Az. Ist. S. Benedetto 23/01/2020 -2,9 4,3 15,4 82 0,2 1.029
FR ANAGNI La Gloria 23/01/2020 -0,3 6,6 16 86 0,2 1.030
FR ARPINO Vigne Piane 23/01/2020 4,5 8,2 13,7 67 0 1.026
FR BOVILLE ERNICA Sasso 23/01/2020 1,6 8 17,7 72 0 1.029
FR CECCANO C.da Passo del Cardinale 23/01/2020 -2,3 3,8 16,8 88 0,2 ----
FR ESPERIA Modale 23/01/2020 -1,6 4,1 16 72 0,2 1.023
FR PASTENA Acero 23/01/2020 -4,4 1,9 16,4 91 0,2 1.024
FR PIGLIO Civitella 23/01/2020 0,3 7,2 17,3 79 0,2 1.027
FR PONTECORVO Melfi di Sotto 23/01/2020 -1,7 4,3 16,4 88 0,2 ----
FR S. ELIA FIUMERAPIDO Portella 23/01/2020 -0,1 6,7 14,9 82 0 1.029
FR S. GIORGIO A LIRI Porto 23/01/2020 -2,8 3,2 15,9 83 0,2 1.021
FR SGURGOLA Campo Lungo 23/01/2020 -2,1 4 16,6 91 0,2 ----
FR VALLECORSA Serbatoio comunale 23/01/2020 5 8,8 16,1 78 0,2 1.028
LT APRILIA Le Ferriere 23/01/2020 4 9 17,1 88 0,2 1.027
LT CISTERNA B.go Carso 23/01/2020 2,5 7,7 16,4 88 0,1 ----
LT CISTERNA Doganella di Ninfa 23/01/2020 2,6 8,8 18 87 0,2 1.029
LT CORI Portone 23/01/2020 6,1 10,2 17 73 0 1.027
LT FONDI Capratica 23/01/2020 2 7,4 15,9 94 0 1.029
LT FORMIA Loc. Gianola 23/01/2020 0,4 6,3 15,2 88 0 ----
LT ITRI Valle Quercia 23/01/2020 6,5 10,7 16,4 69 0 1.027
LT MAENZA Casacotta 23/01/2020 2,2 8,2 17,4 83 0,2 1.019
LT MINTURNO Pulcherini 23/01/2020 6,2 11,2 16,7 70 0 1.028
LT PONTINIA Cotarda 23/01/2020 -0,5 7,2 19,1 88 0 1.026
LT SABAUDIA Acquaviva 23/01/2020 2,9 7,8 15,7 91 0,4 1.027
LT SONNINO Frasso 23/01/2020 7,6 11,1 18,6 82 0 1.028
RI ACCUMOLI Terracino 23/01/2020 2,2 4,6 9,5 72 0 1.031
RI BORGOVELINO Ponte Basso 23/01/2020 -1 5,6 15,9 77 0 1.026
RI CANTALUPO S. Francesco 23/01/2020 -0,8 4,4 12,8 91 0 ----
RI CASTEL DI TORA Monte di Tora 23/01/2020 -1,8 4,2 15,3 83 0,2 1.024
RI CASTELNUOVO FARFA C. Spadone 23/01/2020 1,3 6,9 14,2 84 0 ----
RI CONFIGNI Portella 23/01/2020 2 7,1 14,2 77 0 1.027
RI FARA SABINA Canneto 23/01/2020 2,5 8,7 16,7 74 0 1.027
RI FARA SABINA Sant'Andrea 23/01/2020 1,7 7,6 16,5 81 0,2 ----
RI MONTELEONE S. Prato Camino 23/01/2020 1,2 7,4 16,5 74 0 1.027
RI MONTOPOLI IN SABINA Colle Arcone 23/01/2020 0,3 6 13,8 91 0 ----
RI MONTOPOLI IN SABINA Villa Caprola 23/01/2020 -0,6 6,5 16,6 92 0 ----
RI POGGIO CATINO Pastine 23/01/2020 3,1 8 14,4 79 0 ----
RI POGGIO NATIVO Casali 23/01/2020 3,4 8,4 13 74 0 ----
RI RIETI Piana di Rieti 23/01/2020 -4,6 2,3 18,4 86 0,1 1.032
RI SCANDRIGLIA Ponticelli 23/01/2020 3 7,7 14,1 83 0 ----
RM AGOSTA La Cisterna 23/01/2020 -1,1 5 16,5 83 0,2 1.025
RM BRACCIANO Prato Pianciano 23/01/2020 2,4 7 14,9 92 0 1.024
RM CANALE MONTERANO Monte Virginio 23/01/2020 N.D. N.D. N.D. N.D. N.D. 1.024
RM CERVETERI Campo di Mare 23/01/2020 3,9 10,2 19,7 84 0,2 ----
RM CIVITELLA S.PAOLO Le Cese 23/01/2020 1 7,1 14,1 84 0 1.026
RM FIUMICINO Maccarese 23/01/2020 2,1 8,2 17,5 91 0,1 1.027
RM FIUMICINO Testa di Lepre 23/01/2020 3,3 8,9 15,8 88 0,2 ----
RM FORMELLO Perazzeta 23/01/2020 1,1 8,3 15,5 84 0,1 ----
RM FRASCATI Prata Porci 23/01/2020 0,8 7,2 15,8 90 0 1.028
RM GENAZZANO Coop. La Sonnina 23/01/2020 0 7,1 15,4 81 0 1.028
RM GROTTAFERRATA Valle Marciana 23/01/2020 4,3 8,2 14,8 81 0 1.028
RM LADISPOLI Palo Laziale 23/01/2020 4,6 8,5 14,9 87 0,1 1.029
RM LICENZA Colle Franco 23/01/2020 0,2 6,2 16,2 78 0,2 1.022
RM MARCELLINA V. Campetella 23/01/2020 2,7 7,9 15,1 89 0,2 ----
RM MARINO Gotto d'Oro 23/01/2020 4,2 9,7 15,4 82 0,2 1.030
RM MONTECOMPATRI Colle Mattia 23/01/2020 1,6 7 15 87 0 1.030
RM MONTECOMPATRI Pantano Borghese 23/01/2020 -1,8 5,7 16,9 86 0 1.023
RM MONTELIBRETTI Bruciati 23/01/2020 -0,1 6,5 16,6 87 0 ----
RM MONTEPORZIO Camaldoli 23/01/2020 3,1 6,3 10,6 90 0,2 1.030
RM MONTEROTONDO Grotta Marozza 23/01/2020 0,7 7,2 17,4 85 0,2 1.028
RM PALOMBARA Fonte Grande 23/01/2020 -0,1 6,6 15,2 88 0,2 ----
RM ROMA Capocotta 23/01/2020 N.D. N.D. N.D. N.D. N.D. ----
RM ROMA Ponte di Nona 23/01/2020 2,1 8,1 16,8 90 0 1.030
RM ROMA Via Lanciani 38 23/01/2020 4,5 9,5 16 80 0 1.027
RM S. GREGORIO C. Faustiniano 23/01/2020 3,8 8,7 15,8 74 0 1.022
RM VELLETRI Cantina Sperimentale 23/01/2020 3,2 8,2 16,2 82 0 1.021
RM VELLETRI Prato Lungo 23/01/2020 4,3 9 16,6 78 0 ----
RM ZAGAROLO Santa Apollara 23/01/2020 4,2 8,6 14,8 82 0 ----
VT ACQUAPENDENTE Falconiera 23/01/2020 0,2 5,9 15 84 0 1.026
VT BAGNOREGIO Castell Cellesi 23/01/2020 2,1 7,4 12,6 79 0 ----
VT BASSANO R. Piano Mola 23/01/2020 3,3 8 15,7 80 0 1.024
VT BLERA Puntoni 23/01/2020 2,6 7,4 16,1 86 0 1.028
VT BOLSENA Capone 23/01/2020 1,3 6,9 15,6 81 0 1.027
VT BOLSENA Rentica 23/01/2020 1,9 6,3 13,7 85 0 ----
VT CANINO Diga Timone 23/01/2020 1,3 6,6 17 89 0,2 1.026
VT CANINO Pianacce 23/01/2020 -0,4 6,3 16,1 88 0,2 1.029
VT CANINO San Valeriano 23/01/2020 5,6 9,5 15,7 80 0 ----
VT CELLENO Acquaforte 23/01/2020 0 5,5 12,7 92 0 ----
VT CORCHIANO Pantalone 23/01/2020 -2,6 5 15,3 88 0 1.027
VT FARNESE Gressa 23/01/2020 1,7 6,8 14,8 83 0,1 ----
VT FARNESE Pian di Sala 23/01/2020 -2 3,9 15,1 88 0,1 ----
VT GROTTE DI CASTRO Borghetto 23/01/2020 1,3 6,5 14,2 84 0,2 1.027
VT GROTTE DI CASTRO Purgatorio 23/01/2020 -0,1 5,4 13,6 87 0,2 1.027
VT LATERA Centro Florovivaistico 23/01/2020 -2,1 5 15,3 54 0,2 1.027
VT MONTALTO Le Murelle 23/01/2020 4 8,4 14,6 88 0 1.031
VT MONTALTO Pescia Romana 23/01/2020 2 8 16,9 89 0,2 1.027
VT MONTEFIASCONE Commenda 23/01/2020 3,3 7,7 14 83 0 ----
VT RONCIGLIONE Ponterotto 23/01/2020 -0,9 5,4 14,7 86 0,2 ----
VT SORIANO CIMINO Pantane 23/01/2020 -4,4 2,8 14,4 86 0 1.026
VT SORIANO CIMINO Poggio di Chia 23/01/2020 -0,6 5 13,3 91 0 ----
VT TARQUINIA Portaccia 23/01/2020 3,6 8,5 16 91 0,1 ----
VT TUSCANIA Montebello 23/01/2020 4,7 9,2 16,6 89 0,2 ----
VT VETRALLA Marchionato 23/01/2020 3 7,3 14 92 0 ----
VT VITERBO Pisello 23/01/2020 2 7,4 14,1 83 0 ----
N.D. = Dati Non Disponibili
---- = Sensore non presente

Le misure esposte sono grezze, ovvero non sono state validate.